sensor_id;sensor_type;location;lat;lon;timestamp;temperature;humidity
50013;DHT22;35901;48.694;9.476;2024-01-11T00:00:14;-7.60;99.90
50013;DHT22;35901;48.694;9.476;2024-01-11T00:02:40;-7.60;99.90
50013;DHT22;35901;48.694;9.476;2024-01-11T00:05:06;-7.70;99.90
50013;DHT22;35901;48.694;9.476;2024-01-11T00:07:32;-7.80;99.90
50013;DHT22;35901;48.694;9.476;2024-01-11T00:09:58;-7.80;99.90
50013;DHT22;35901;48.694;9.476;2024-01-11T00:12:23;-7.90;99.90
50013;DHT22;35901;48.694;9.476;2024-01-11T00:14:49;-7.90;99.90
50013;DHT22;35901;48.694;9.476;2024-01-11T00:17:15;-7.90;99.90
50013;DHT22;35901;48.694;9.476;2024-01-11T00:19:41;-7.70;99.90
50013;DHT22;35901;48.694;9.476;2024-01-11T00:22:07;-7.70;99.90
50013;DHT22;35901;48.694;9.476;2024-01-11T00:24:32;-7.70;99.90
50013;DHT22;35901;48.694;9.476;2024-01-11T00:26:58;-7.70;99.90
50013;DHT22;35901;48.694;9.476;2024-01-11T00:29:24;-7.70;99.90
50013;DHT22;35901;48.694;9.476;2024-01-11T00:31:49;-7.70;99.90
50013;DHT22;35901;48.694;9.476;2024-01-11T00:34:15;-7.80;99.90
50013;DHT22;35901;48.694;9.476;2024-01-11T00:36:41;-7.80;99.90
50013;DHT22;35901;48.694;9.476;2024-01-11T00:39:06;-7.70;99.90
50013;DHT22;35901;48.694;9.476;2024-01-11T00:41:32;-7.60;99.90
50013;DHT22;35901;48.694;9.476;2024-01-11T00:43:57;-7.50;99.90
50013;DHT22;35901;48.694;9.476;2024-01-11T00:46:23;-7.60;99.90
50013;DHT22;35901;48.694;9.476;2024-01-11T00:48:49;-7.60;99.90
50013;DHT22;35901;48.694;9.476;2024-01-11T00:51:15;-7.80;99.90
50013;DHT22;35901;48.694;9.476;2024-01-11T00:53:41;-7.90;99.90
50013;DHT22;35901;48.694;9.476;2024-01-11T00:56:15;-7.90;99.90
50013;DHT22;35901;48.694;9.476;2024-01-11T00:58:41;-7.90;99.90
50013;DHT22;35901;48.694;9.476;2024-01-11T01:01:09;-7.80;99.90
50013;DHT22;35901;48.694;9.476;2024-01-11T01:03:35;-7.70;99.90
50013;DHT22;35901;48.694;9.476;2024-01-11T01:06:01;-7.70;99.90
50013;DHT22;35901;48.694;9.476;2024-01-11T01:08:27;-7.70;99.90
50013;DHT22;35901;48.694;9.476;2024-01-11T01:10:52;-7.90;99.90
50013;DHT22;35901;48.694;9.476;2024-01-11T01:13:18;-8.00;99.90
50013;DHT22;35901;48.694;9.476;2024-01-11T01:15:44;-8.10;99.90
50013;DHT22;35901;48.694;9.476;2024-01-11T01:18:10;-8.00;99.90
50013;DHT22;35901;48.694;9.476;2024-01-11T01:20:35;-7.90;99.90
50013;DHT22;35901;48.694;9.476;2024-01-11T01:23:01;-7.90;99.90
50013;DHT22;35901;48.694;9.476;2024-01-11T01:25:27;-7.90;99.90
50013;DHT22;35901;48.694;9.476;2024-01-11T01:27:53;-8.00;99.90
50013;DHT22;35901;48.694;9.476;2024-01-11T01:30:19;-8.10;99.90
50013;DHT22;35901;48.694;9.476;2024-01-11T01:32:45;-8.10;99.90
50013;DHT22;35901;48.694;9.476;2024-01-11T01:35:10;-8.20;99.90
50013;DHT22;35901;48.694;9.476;2024-01-11T01:37:36;-8.10;99.90
50013;DHT22;35901;48.694;9.476;2024-01-11T01:40:02;-8.10;99.90
50013;DHT22;35901;48.694;9.476;2024-01-11T01:42:28;-8.20;99.90
50013;DHT22;35901;48.694;9.476;2024-01-11T01:44:54;-8.20;99.90
50013;DHT22;35901;48.694;9.476;2024-01-11T01:47:20;-8.20;99.90
50013;DHT22;35901;48.694;9.476;2024-01-11T01:49:47;-8.20;99.90
50013;DHT22;35901;48.694;9.476;2024-01-11T01:52:14;-8.10;99.90
50013;DHT22;35901;48.694;9.476;2024-01-11T01:54:39;-8.10;99.90
50013;DHT22;35901;48.694;9.476;2024-01-11T01:57:05;-8.10;99.90
50013;DHT22;35901;48.694;9.476;2024-01-11T01:59:33;-8.20;99.90
50013;DHT22;35901;48.694;9.476;2024-01-11T02:01:59;-8.10;99.90
50013;DHT22;35901;48.694;9.476;2024-01-11T02:04:25;-8.20;99.90
50013;DHT22;35901;48.694;9.476;2024-01-11T02:06:51;-8.30;99.90
50013;DHT22;35901;48.694;9.476;2024-01-11T02:09:19;-8.30;99.90
50013;DHT22;35901;48.694;9.476;2024-01-11T02:11:45;-8.40;99.90
50013;DHT22;35901;48.694;9.476;2024-01-11T02:14:13;-8.50;99.90
50013;DHT22;35901;48.694;9.476;2024-01-11T02:16:40;-8.40;99.90
50013;DHT22;35901;48.694;9.476;2024-01-11T02:19:07;-8.40;99.90
50013;DHT22;35901;48.694;9.476;2024-01-11T02:21:36;-8.40;99.90
50013;DHT22;35901;48.694;9.476;2024-01-11T02:24:06;-8.50;99.90
50013;DHT22;35901;48.694;9.476;2024-01-11T02:26:32;-8.60;99.90
50013;DHT22;35901;48.694;9.476;2024-01-11T02:28:57;-8.60;99.90
50013;DHT22;35901;48.694;9.476;2024-01-11T02:31:24;-8.70;99.90
50013;DHT22;35901;48.694;9.476;2024-01-11T02:33:51;-8.80;99.90
50013;DHT22;35901;48.694;9.476;2024-01-11T02:36:17;-8.70;99.90
50013;DHT22;35901;48.694;9.476;2024-01-11T02:38:44;-8.60;99.90
50013;DHT22;35901;48.694;9.476;2024-01-11T02:41:12;-8.50;99.90
50013;DHT22;35901;48.694;9.476;2024-01-11T02:43:39;-8.50;99.90
50013;DHT22;35901;48.694;9.476;2024-01-11T02:46:05;-8.40;99.90
50013;DHT22;35901;48.694;9.476;2024-01-11T02:48:31;-8.50;99.90
50013;DHT22;35901;48.694;9.476;2024-01-11T02:50:59;-8.60;99.90
50013;DHT22;35901;48.694;9.476;2024-01-11T02:53:25;-8.60;99.90
50013;DHT22;35901;48.694;9.476;2024-01-11T02:55:51;-8.60;99.90
50013;DHT22;35901;48.694;9.476;2024-01-11T02:58:16;-8.60;99.90
50013;DHT22;35901;48.694;9.476;2024-01-11T03:00:42;-8.70;99.90
50013;DHT22;35901;48.694;9.476;2024-01-11T03:03:08;-8.70;99.90
50013;DHT22;35901;48.694;9.476;2024-01-11T03:05:33;-8.80;99.90
50013;DHT22;35901;48.694;9.476;2024-01-11T03:07:59;-8.80;99.90
50013;DHT22;35901;48.694;9.476;2024-01-11T03:10:25;-8.80;99.90
50013;DHT22;35901;48.694;9.476;2024-01-11T03:12:50;-8.80;99.90
50013;DHT22;35901;48.694;9.476;2024-01-11T03:15:16;-8.80;99.90
50013;DHT22;35901;48.694;9.476;2024-01-11T03:17:42;-8.70;99.90
50013;DHT22;35901;48.694;9.476;2024-01-11T03:20:08;-8.70;99.90
50013;DHT22;35901;48.694;9.476;2024-01-11T03:22:34;-8.60;99.90
50013;DHT22;35901;48.694;9.476;2024-01-11T03:24:59;-8.70;99.90
50013;DHT22;35901;48.694;9.476;2024-01-11T03:27:25;-8.70;99.90
50013;DHT22;35901;48.694;9.476;2024-01-11T03:29:51;-8.80;99.90
50013;DHT22;35901;48.694;9.476;2024-01-11T03:32:16;-8.90;99.90
50013;DHT22;35901;48.694;9.476;2024-01-11T03:34:42;-8.90;99.90
50013;DHT22;35901;48.694;9.476;2024-01-11T03:37:08;-9.00;99.90
50013;DHT22;35901;48.694;9.476;2024-01-11T03:39:34;-8.90;99.90
50013;DHT22;35901;48.694;9.476;2024-01-11T03:42:00;-8.90;99.90
50013;DHT22;35901;48.694;9.476;2024-01-11T03:44:26;-8.90;99.90
50013;DHT22;35901;48.694;9.476;2024-01-11T03:46:51;-9.00;99.90
50013;DHT22;35901;48.694;9.476;2024-01-11T03:49:17;-8.90;99.90
50013;DHT22;35901;48.694;9.476;2024-01-11T03:51:43;-8.90;99.90
50013;DHT22;35901;48.694;9.476;2024-01-11T03:54:09;-9.00;99.90
50013;DHT22;35901;48.694;9.476;2024-01-11T03:56:38;-8.90;99.90
50013;DHT22;35901;48.694;9.476;2024-01-11T03:59:07;-8.90;99.90
50013;DHT22;35901;48.694;9.476;2024-01-11T04:01:33;-8.80;99.90
50013;DHT22;35901;48.694;9.476;2024-01-11T04:03:59;-8.80;99.90
50013;DHT22;35901;48.694;9.476;2024-01-11T04:06:24;-8.80;99.90
50013;DHT22;35901;48.694;9.476;2024-01-11T04:08:51;-8.90;99.90
50013;DHT22;35901;48.694;9.476;2024-01-11T04:11:17;-8.90;99.90
50013;DHT22;35901;48.694;9.476;2024-01-11T04:13:43;-9.00;99.90
50013;DHT22;35901;48.694;9.476;2024-01-11T04:16:09;-9.00;99.90
50013;DHT22;35901;48.694;9.476;2024-01-11T04:18:34;-9.10;99.90
50013;DHT22;35901;48.694;9.476;2024-01-11T04:21:00;-9.10;99.90
50013;DHT22;35901;48.694;9.476;2024-01-11T04:23:25;-9.10;99.90
50013;DHT22;35901;48.694;9.476;2024-01-11T04:25:51;-9.10;99.90
50013;DHT22;35901;48.694;9.476;2024-01-11T04:28:17;-9.10;99.90
50013;DHT22;35901;48.694;9.476;2024-01-11T04:30:43;-9.10;99.90
50013;DHT22;35901;48.694;9.476;2024-01-11T04:33:09;-9.00;99.90
50013;DHT22;35901;48.694;9.476;2024-01-11T04:35:36;-9.10;99.90
50013;DHT22;35901;48.694;9.476;2024-01-11T04:38:02;-9.10;99.90
50013;DHT22;35901;48.694;9.476;2024-01-11T04:40:27;-9.20;99.90
50013;DHT22;35901;48.694;9.476;2024-01-11T04:42:53;-9.10;99.90
50013;DHT22;35901;48.694;9.476;2024-01-11T04:45:19;-9.00;99.90
50013;DHT22;35901;48.694;9.476;2024-01-11T04:47:44;-9.10;99.90
50013;DHT22;35901;48.694;9.476;2024-01-11T04:50:10;-9.20;99.90
50013;DHT22;35901;48.694;9.476;2024-01-11T04:52:35;-9.30;99.90
50013;DHT22;35901;48.694;9.476;2024-01-11T04:55:01;-9.30;99.90
50013;DHT22;35901;48.694;9.476;2024-01-11T04:57:27;-9.30;99.90
50013;DHT22;35901;48.694;9.476;2024-01-11T04:59:53;-9.30;99.90
50013;DHT22;35901;48.694;9.476;2024-01-11T05:02:20;-9.40;99.90
50013;DHT22;35901;48.694;9.476;2024-01-11T05:04:46;-9.40;99.90
50013;DHT22;35901;48.694;9.476;2024-01-11T05:07:12;-9.40;99.90
50013;DHT22;35901;48.694;9.476;2024-01-11T05:09:37;-9.50;99.90
50013;DHT22;35901;48.694;9.476;2024-01-11T05:12:04;-9.40;99.90
50013;DHT22;35901;48.694;9.476;2024-01-11T05:14:30;-9.30;99.90
50013;DHT22;35901;48.694;9.476;2024-01-11T05:16:56;-9.30;99.90
50013;DHT22;35901;48.694;9.476;2024-01-11T05:19:21;-9.30;99.90
50013;DHT22;35901;48.694;9.476;2024-01-11T05:21:47;-9.30;99.90
50013;DHT22;35901;48.694;9.476;2024-01-11T05:24:13;-9.20;99.90
50013;DHT22;35901;48.694;9.476;2024-01-11T05:26:38;-9.20;99.90
50013;DHT22;35901;48.694;9.476;2024-01-11T05:29:04;-9.20;99.90
50013;DHT22;35901;48.694;9.476;2024-01-11T05:31:30;-9.10;99.90
50013;DHT22;35901;48.694;9.476;2024-01-11T05:33:56;-9.00;99.90
50013;DHT22;35901;48.694;9.476;2024-01-11T05:36:23;-8.90;99.90
50013;DHT22;35901;48.694;9.476;2024-01-11T05:38:48;-8.80;99.90
50013;DHT22;35901;48.694;9.476;2024-01-11T05:41:14;-8.90;99.90
50013;DHT22;35901;48.694;9.476;2024-01-11T05:43:40;-8.90;99.90
50013;DHT22;35901;48.694;9.476;2024-01-11T05:46:06;-9.00;99.90
50013;DHT22;35901;48.694;9.476;2024-01-11T05:48:32;-9.10;99.90
50013;DHT22;35901;48.694;9.476;2024-01-11T05:50:58;-9.20;99.90
50013;DHT22;35901;48.694;9.476;2024-01-11T05:53:25;-9.40;99.90
50013;DHT22;35901;48.694;9.476;2024-01-11T05:55:53;-9.40;99.90
50013;DHT22;35901;48.694;9.476;2024-01-11T05:58:18;-9.50;99.90
50013;DHT22;35901;48.694;9.476;2024-01-11T06:00:44;-9.60;99.90
50013;DHT22;35901;48.694;9.476;2024-01-11T06:03:12;-9.70;99.90
50013;DHT22;35901;48.694;9.476;2024-01-11T06:05:37;-9.70;99.90
50013;DHT22;35901;48.694;9.476;2024-01-11T06:08:03;-9.80;99.90
50013;DHT22;35901;48.694;9.476;2024-01-11T06:10:29;-9.80;99.90
50013;DHT22;35901;48.694;9.476;2024-01-11T06:12:56;-9.80;99.90
50013;DHT22;35901;48.694;9.476;2024-01-11T06:15:22;-9.80;99.90
50013;DHT22;35901;48.694;9.476;2024-01-11T06:17:47;-9.70;99.90
50013;DHT22;35901;48.694;9.476;2024-01-11T06:20:13;-9.70;99.90
50013;DHT22;35901;48.694;9.476;2024-01-11T06:22:39;-9.70;99.90
50013;DHT22;35901;48.694;9.476;2024-01-11T06:25:05;-9.60;99.90
50013;DHT22;35901;48.694;9.476;2024-01-11T06:27:30;-9.60;99.90
50013;DHT22;35901;48.694;9.476;2024-01-11T06:29:56;-9.60;99.90
50013;DHT22;35901;48.694;9.476;2024-01-11T06:32:22;-9.40;99.90
50013;DHT22;35901;48.694;9.476;2024-01-11T06:34:47;-9.30;99.90
50013;DHT22;35901;48.694;9.476;2024-01-11T06:37:13;-9.20;99.90
50013;DHT22;35901;48.694;9.476;2024-01-11T06:39:44;-9.20;99.90
50013;DHT22;35901;48.694;9.476;2024-01-11T06:42:09;-9.10;99.90
50013;DHT22;35901;48.694;9.476;2024-01-11T06:44:35;-9.20;99.90
50013;DHT22;35901;48.694;9.476;2024-01-11T06:47:00;-9.30;99.90
50013;DHT22;35901;48.694;9.476;2024-01-11T06:49:28;-9.40;99.90
50013;DHT22;35901;48.694;9.476;2024-01-11T06:51:54;-9.50;99.90
50013;DHT22;35901;48.694;9.476;2024-01-11T06:54:20;-9.50;99.90
50013;DHT22;35901;48.694;9.476;2024-01-11T06:56:46;-9.50;99.90
50013;DHT22;35901;48.694;9.476;2024-01-11T06:59:12;-9.50;99.90
50013;DHT22;35901;48.694;9.476;2024-01-11T07:01:37;-9.50;99.90
50013;DHT22;35901;48.694;9.476;2024-01-11T07:04:03;-9.50;99.90
50013;DHT22;35901;48.694;9.476;2024-01-11T07:06:29;-9.40;99.90
50013;DHT22;35901;48.694;9.476;2024-01-11T07:08:54;-9.50;99.90
50013;DHT22;35901;48.694;9.476;2024-01-11T07:11:20;-9.50;99.90
50013;DHT22;35901;48.694;9.476;2024-01-11T07:13:46;-9.40;99.90
50013;DHT22;35901;48.694;9.476;2024-01-11T07:16:11;-9.40;99.90
50013;DHT22;35901;48.694;9.476;2024-01-11T07:18:37;-9.50;99.90
50013;DHT22;35901;48.694;9.476;2024-01-11T07:21:03;-9.50;99.90
50013;DHT22;35901;48.694;9.476;2024-01-11T07:23:29;-9.50;99.90
50013;DHT22;35901;48.694;9.476;2024-01-11T07:25:54;-9.60;99.90
50013;DHT22;35901;48.694;9.476;2024-01-11T07:28:20;-9.60;99.90
50013;DHT22;35901;48.694;9.476;2024-01-11T07:30:53;-9.60;99.90
50013;DHT22;35901;48.694;9.476;2024-01-11T07:33:20;-9.70;99.90
50013;DHT22;35901;48.694;9.476;2024-01-11T07:35:46;-9.60;99.90
50013;DHT22;35901;48.694;9.476;2024-01-11T07:38:12;-9.60;99.90
50013;DHT22;35901;48.694;9.476;2024-01-11T07:40:38;-9.50;99.90
50013;DHT22;35901;48.694;9.476;2024-01-11T07:43:03;-9.40;99.90
50013;DHT22;35901;48.694;9.476;2024-01-11T07:45:29;-9.20;99.90
50013;DHT22;35901;48.694;9.476;2024-01-11T07:47:55;-8.90;99.90
50013;DHT22;35901;48.694;9.476;2024-01-11T07:50:21;-8.70;99.90
50013;DHT22;35901;48.694;9.476;2024-01-11T07:52:47;-8.30;99.90
50013;DHT22;35901;48.694;9.476;2024-01-11T07:55:13;-8.10;99.90
50013;DHT22;35901;48.694;9.476;2024-01-11T07:57:39;-8.00;99.90
50013;DHT22;35901;48.694;9.476;2024-01-11T08:00:05;-7.90;99.90
50013;DHT22;35901;48.694;9.476;2024-01-11T08:02:40;-7.80;99.90
50013;DHT22;35901;48.694;9.476;2024-01-11T08:05:06;-7.70;99.90
50013;DHT22;35901;48.694;9.476;2024-01-11T08:07:32;-7.50;99.90
50013;DHT22;35901;48.694;9.476;2024-01-11T08:09:58;-7.40;99.90
50013;DHT22;35901;48.694;9.476;2024-01-11T08:12:23;-7.20;99.90
50013;DHT22;35901;48.694;9.476;2024-01-11T08:14:49;-7.00;99.90
50013;DHT22;35901;48.694;9.476;2024-01-11T08:17:15;-6.70;99.90
50013;DHT22;35901;48.694;9.476;2024-01-11T08:19:41;-6.30;99.90
50013;DHT22;35901;48.694;9.476;2024-01-11T08:22:10;-6.10;99.90
50013;DHT22;35901;48.694;9.476;2024-01-11T08:24:37;-6.10;99.90
50013;DHT22;35901;48.694;9.476;2024-01-11T08:27:04;-6.10;99.90
50013;DHT22;35901;48.694;9.476;2024-01-11T08:29:29;-6.00;99.90
50013;DHT22;35901;48.694;9.476;2024-01-11T08:31:55;-6.10;99.90
50013;DHT22;35901;48.694;9.476;2024-01-11T08:34:22;-6.00;99.90
50013;DHT22;35901;48.694;9.476;2024-01-11T08:36:47;-5.80;99.90
50013;DHT22;35901;48.694;9.476;2024-01-11T08:39:13;-5.70;99.90
50013;DHT22;35901;48.694;9.476;2024-01-11T08:41:40;-5.70;99.90
50013;DHT22;35901;48.694;9.476;2024-01-11T08:44:06;-5.70;99.90
50013;DHT22;35901;48.694;9.476;2024-01-11T08:46:33;-5.60;99.90
50013;DHT22;35901;48.694;9.476;2024-01-11T08:49:01;-5.60;99.90
50013;DHT22;35901;48.694;9.476;2024-01-11T08:51:29;-5.60;99.90
50013;DHT22;35901;48.694;9.476;2024-01-11T08:53:55;-5.60;99.90
50013;DHT22;35901;48.694;9.476;2024-01-11T08:56:21;-5.40;99.90
50013;DHT22;35901;48.694;9.476;2024-01-11T08:58:46;-5.20;99.90
50013;DHT22;35901;48.694;9.476;2024-01-11T09:01:14;-5.00;99.90
50013;DHT22;35901;48.694;9.476;2024-01-11T09:03:39;-4.90;99.90
50013;DHT22;35901;48.694;9.476;2024-01-11T09:06:06;-4.70;99.90
50013;DHT22;35901;48.694;9.476;2024-01-11T09:08:32;-4.60;99.90
50013;DHT22;35901;48.694;9.476;2024-01-11T09:10:58;-4.50;99.90
50013;DHT22;35901;48.694;9.476;2024-01-11T09:13:25;-4.50;99.90
50013;DHT22;35901;48.694;9.476;2024-01-11T09:15:54;-4.40;99.90
50013;DHT22;35901;48.694;9.476;2024-01-11T09:18:20;-4.50;99.90
50013;DHT22;35901;48.694;9.476;2024-01-11T09:20:46;-4.40;99.90
50013;DHT22;35901;48.694;9.476;2024-01-11T09:23:12;-4.20;99.90
50013;DHT22;35901;48.694;9.476;2024-01-11T09:25:38;-4.10;99.90
50013;DHT22;35901;48.694;9.476;2024-01-11T09:28:04;-3.90;99.90
50013;DHT22;35901;48.694;9.476;2024-01-11T09:30:30;-3.70;99.90
50013;DHT22;35901;48.694;9.476;2024-01-11T09:32:56;-3.60;99.90
50013;DHT22;35901;48.694;9.476;2024-01-11T09:35:22;-3.50;99.90
50013;DHT22;35901;48.694;9.476;2024-01-11T09:37:49;-3.40;99.90
50013;DHT22;35901;48.694;9.476;2024-01-11T09:40:15;-3.30;99.90
50013;DHT22;35901;48.694;9.476;2024-01-11T09:42:41;-3.20;99.90
50013;DHT22;35901;48.694;9.476;2024-01-11T09:45:15;-3.00;99.90
50013;DHT22;35901;48.694;9.476;2024-01-11T09:47:41;-2.80;99.90
50013;DHT22;35901;48.694;9.476;2024-01-11T09:50:08;-2.70;99.90
50013;DHT22;35901;48.694;9.476;2024-01-11T09:52:33;-2.60;99.90
50013;DHT22;35901;48.694;9.476;2024-01-11T09:55:00;-2.60;99.90
50013;DHT22;35901;48.694;9.476;2024-01-11T09:57:30;-2.40;99.90
50013;DHT22;35901;48.694;9.476;2024-01-11T09:59:57;-2.20;99.90
50013;DHT22;35901;48.694;9.476;2024-01-11T10:02:24;-2.00;99.90
50013;DHT22;35901;48.694;9.476;2024-01-11T10:04:55;-1.90;99.90
50013;DHT22;35901;48.694;9.476;2024-01-11T10:07:24;-1.80;99.90
50013;DHT22;35901;48.694;9.476;2024-01-11T10:09:50;-1.60;99.90
50013;DHT22;35901;48.694;9.476;2024-01-11T10:16:10;-1.40;99.90
50013;DHT22;35901;48.694;9.476;2024-01-11T10:18:39;-1.30;99.90
50013;DHT22;35901;48.694;9.476;2024-01-11T10:21:05;-1.10;99.90
50013;DHT22;35901;48.694;9.476;2024-01-11T10:23:34;-0.90;99.90
50013;DHT22;35901;48.694;9.476;2024-01-11T10:26:00;-0.70;99.90
50013;DHT22;35901;48.694;9.476;2024-01-11T10:28:27;-0.70;99.90
50013;DHT22;35901;48.694;9.476;2024-01-11T10:30:52;-0.80;99.90
50013;DHT22;35901;48.694;9.476;2024-01-11T10:33:22;-0.60;99.90
50013;DHT22;35901;48.694;9.476;2024-01-11T10:35:49;-0.70;99.90
50013;DHT22;35901;48.694;9.476;2024-01-11T10:38:16;-0.70;99.90
50013;DHT22;35901;48.694;9.476;2024-01-11T10:40:43;-0.50;99.90
50013;DHT22;35901;48.694;9.476;2024-01-11T10:43:10;-0.30;99.90
50013;DHT22;35901;48.694;9.476;2024-01-11T10:45:41;-0.10;99.90
50013;DHT22;35901;48.694;9.476;2024-01-11T10:48:14;0.20;99.90
50013;DHT22;35901;48.694;9.476;2024-01-11T10:50:45;0.30;99.90
50013;DHT22;35901;48.694;9.476;2024-01-11T10:53:35;0.30;99.90
50013;DHT22;35901;48.694;9.476;2024-01-11T10:56:03;0.40;99.90
50013;DHT22;35901;48.694;9.476;2024-01-11T10:58:30;0.60;99.90
50013;DHT22;35901;48.694;9.476;2024-01-11T11:00:58;0.90;99.90
50013;DHT22;35901;48.694;9.476;2024-01-11T11:03:25;0.80;99.90
50013;DHT22;35901;48.694;9.476;2024-01-11T11:05:54;1.00;99.90
50013;DHT22;35901;48.694;9.476;2024-01-11T11:08:23;1.30;99.90
50013;DHT22;35901;48.694;9.476;2024-01-11T11:11:03;1.30;99.90
50013;DHT22;35901;48.694;9.476;2024-01-11T11:13:31;1.10;99.90
50013;DHT22;35901;48.694;9.476;2024-01-11T11:15:57;1.10;99.90
50013;DHT22;35901;48.694;9.476;2024-01-11T11:18:24;1.10;99.90
50013;DHT22;35901;48.694;9.476;2024-01-11T11:20:50;1.30;99.90
50013;DHT22;35901;48.694;9.476;2024-01-11T11:23:18;1.30;99.90
50013;DHT22;35901;48.694;9.476;2024-01-11T11:25:48;1.40;99.90
50013;DHT22;35901;48.694;9.476;2024-01-11T11:28:15;1.50;99.90
50013;DHT22;35901;48.694;9.476;2024-01-11T11:30:43;1.60;99.90
50013;DHT22;35901;48.694;9.476;2024-01-11T11:35:36;2.00;99.90
50013;DHT22;35901;48.694;9.476;2024-01-11T11:38:02;2.10;99.90
50013;DHT22;35901;48.694;9.476;2024-01-11T11:40:33;2.10;99.90
50013;DHT22;35901;48.694;9.476;2024-01-11T11:43:09;2.20;99.90
50013;DHT22;35901;48.694;9.476;2024-01-11T11:45:35;2.00;99.90
50013;DHT22;35901;48.694;9.476;2024-01-11T11:53:35;2.30;99.90
50013;DHT22;35901;48.694;9.476;2024-01-11T11:56:02;2.50;99.90
50013;DHT22;35901;48.694;9.476;2024-01-11T11:58:31;2.60;99.90
50013;DHT22;35901;48.694;9.476;2024-01-11T12:00:58;2.60;99.90
50013;DHT22;35901;48.694;9.476;2024-01-11T12:03:35;2.40;99.90
50013;DHT22;35901;48.694;9.476;2024-01-11T12:06:06;2.40;99.90
50013;DHT22;35901;48.694;9.476;2024-01-11T12:08:33;2.50;99.90
50013;DHT22;35901;48.694;9.476;2024-01-11T12:10:59;2.50;99.90
50013;DHT22;35901;48.694;9.476;2024-01-11T12:13:26;2.40;99.90
50013;DHT22;35901;48.694;9.476;2024-01-11T12:15:52;2.40;99.90
50013;DHT22;35901;48.694;9.476;2024-01-11T12:18:18;2.40;99.90
50013;DHT22;35901;48.694;9.476;2024-01-11T12:20:44;2.40;99.90
50013;DHT22;35901;48.694;9.476;2024-01-11T12:23:10;2.30;99.90
50013;DHT22;35901;48.694;9.476;2024-01-11T12:25:36;2.30;99.90
50013;DHT22;35901;48.694;9.476;2024-01-11T12:28:02;2.30;99.90
50013;DHT22;35901;48.694;9.476;2024-01-11T12:30:28;2.30;99.90
50013;DHT22;35901;48.694;9.476;2024-01-11T12:32:59;2.20;99.90
50013;DHT22;35901;48.694;9.476;2024-01-11T12:35:30;1.80;99.90
50013;DHT22;35901;48.694;9.476;2024-01-11T12:38:03;1.40;99.90
50013;DHT22;35901;48.694;9.476;2024-01-11T12:40:36;1.10;99.90
50013;DHT22;35901;48.694;9.476;2024-01-11T12:43:05;0.80;99.90
50013;DHT22;35901;48.694;9.476;2024-01-11T12:45:31;0.60;99.90
50013;DHT22;35901;48.694;9.476;2024-01-11T12:48:01;0.50;99.90
50013;DHT22;35901;48.694;9.476;2024-01-11T12:50:29;0.50;99.90
50013;DHT22;35901;48.694;9.476;2024-01-11T12:55:32;0.30;99.90
50013;DHT22;35901;48.694;9.476;2024-01-11T12:58:09;0.30;99.90
50013;DHT22;35901;48.694;9.476;2024-01-11T13:00:38;0.30;99.90
50013;DHT22;35901;48.694;9.476;2024-01-11T13:03:04;0.40;99.90
50013;DHT22;35901;48.694;9.476;2024-01-11T13:05:31;0.40;99.90
50013;DHT22;35901;48.694;9.476;2024-01-11T13:08:01;0.50;99.90
50013;DHT22;35901;48.694;9.476;2024-01-11T13:10:28;0.40;99.90
50013;DHT22;35901;48.694;9.476;2024-01-11T13:12:54;0.30;99.90
50013;DHT22;35901;48.694;9.476;2024-01-11T13:15:21;0.30;99.90
50013;DHT22;35901;48.694;9.476;2024-01-11T13:17:47;0.30;99.90
50013;DHT22;35901;48.694;9.476;2024-01-11T13:20:14;0.30;99.90
50013;DHT22;35901;48.694;9.476;2024-01-11T13:22:41;0.40;99.90
50013;DHT22;35901;48.694;9.476;2024-01-11T13:25:08;0.40;99.90
50013;DHT22;35901;48.694;9.476;2024-01-11T13:27:34;0.40;99.90
50013;DHT22;35901;48.694;9.476;2024-01-11T13:30:01;0.30;99.90
50013;DHT22;35901;48.694;9.476;2024-01-11T13:32:26;0.30;99.90
50013;DHT22;35901;48.694;9.476;2024-01-11T13:34:52;0.30;99.90
50013;DHT22;35901;48.694;9.476;2024-01-11T13:37:19;0.30;99.90
50013;DHT22;35901;48.694;9.476;2024-01-11T13:39:45;0.20;99.90
50013;DHT22;35901;48.694;9.476;2024-01-11T13:42:11;0.20;99.90
50013;DHT22;35901;48.694;9.476;2024-01-11T13:44:38;0.20;99.90
50013;DHT22;35901;48.694;9.476;2024-01-11T13:47:04;0.20;99.90
50013;DHT22;35901;48.694;9.476;2024-01-11T13:49:30;0.20;99.90
50013;DHT22;35901;48.694;9.476;2024-01-11T13:51:56;0.20;99.90
50013;DHT22;35901;48.694;9.476;2024-01-11T13:54:21;0.20;99.90
50013;DHT22;35901;48.694;9.476;2024-01-11T13:56:47;0.10;99.90
50013;DHT22;35901;48.694;9.476;2024-01-11T13:59:13;0.10;99.90
50013;DHT22;35901;48.694;9.476;2024-01-11T14:01:40;0.10;99.90
50013;DHT22;35901;48.694;9.476;2024-01-11T14:04:05;0.10;99.90
50013;DHT22;35901;48.694;9.476;2024-01-11T14:06:31;0.00;99.90
50013;DHT22;35901;48.694;9.476;2024-01-11T14:08:57;0.00;99.90
50013;DHT22;35901;48.694;9.476;2024-01-11T14:11:23;0.20;99.90
50013;DHT22;35901;48.694;9.476;2024-01-11T14:13:48;0.50;99.90
50013;DHT22;35901;48.694;9.476;2024-01-11T14:16:14;0.70;99.90
50013;DHT22;35901;48.694;9.476;2024-01-11T14:18:41;0.80;99.90
50013;DHT22;35901;48.694;9.476;2024-01-11T14:21:07;0.60;99.90
50013;DHT22;35901;48.694;9.476;2024-01-11T14:23:34;0.60;99.90
50013;DHT22;35901;48.694;9.476;2024-01-11T14:25:59;0.70;99.90
50013;DHT22;35901;48.694;9.476;2024-01-11T14:28:25;0.70;99.90
50013;DHT22;35901;48.694;9.476;2024-01-11T14:30:51;0.40;99.90
50013;DHT22;35901;48.694;9.476;2024-01-11T14:33:16;0.20;99.90
50013;DHT22;35901;48.694;9.476;2024-01-11T14:35:42;0.00;99.90
50013;DHT22;35901;48.694;9.476;2024-01-11T14:38:08;-0.10;99.90
50013;DHT22;35901;48.694;9.476;2024-01-11T14:40:34;-0.20;99.90
50013;DHT22;35901;48.694;9.476;2024-01-11T14:43:00;-0.30;99.90
50013;DHT22;35901;48.694;9.476;2024-01-11T14:45:25;-0.40;99.90
50013;DHT22;35901;48.694;9.476;2024-01-11T14:47:59;-0.40;99.90
50013;DHT22;35901;48.694;9.476;2024-01-11T14:50:24;-0.40;99.90
50013;DHT22;35901;48.694;9.476;2024-01-11T14:52:50;-0.50;99.90
50013;DHT22;35901;48.694;9.476;2024-01-11T14:55:20;-0.60;99.90
50013;DHT22;35901;48.694;9.476;2024-01-11T14:58:00;-0.60;99.90
50013;DHT22;35901;48.694;9.476;2024-01-11T15:00:26;-0.70;99.90
50013;DHT22;35901;48.694;9.476;2024-01-11T15:02:52;-0.80;99.90
50013;DHT22;35901;48.694;9.476;2024-01-11T15:05:17;-0.90;99.90
50013;DHT22;35901;48.694;9.476;2024-01-11T15:07:43;-0.90;99.90
50013;DHT22;35901;48.694;9.476;2024-01-11T15:10:09;-1.10;99.90
50013;DHT22;35901;48.694;9.476;2024-01-11T15:12:35;-1.10;99.90
50013;DHT22;35901;48.694;9.476;2024-01-11T15:15:02;-1.20;99.90
50013;DHT22;35901;48.694;9.476;2024-01-11T15:17:31;-1.20;99.90
50013;DHT22;35901;48.694;9.476;2024-01-11T15:20:12;-1.20;99.90
50013;DHT22;35901;48.694;9.476;2024-01-11T15:22:38;-1.30;99.90
50013;DHT22;35901;48.694;9.476;2024-01-11T15:25:04;-1.40;99.90
50013;DHT22;35901;48.694;9.476;2024-01-11T15:27:30;-1.50;99.90
50013;DHT22;35901;48.694;9.476;2024-01-11T15:29:56;-1.60;99.90
50013;DHT22;35901;48.694;9.476;2024-01-11T15:32:22;-1.70;99.90
50013;DHT22;35901;48.694;9.476;2024-01-11T15:34:48;-1.70;99.90
50013;DHT22;35901;48.694;9.476;2024-01-11T15:37:14;-1.80;99.90
50013;DHT22;35901;48.694;9.476;2024-01-11T15:39:39;-2.00;99.90
50013;DHT22;35901;48.694;9.476;2024-01-11T15:42:05;-2.10;99.90
50013;DHT22;35901;48.694;9.476;2024-01-11T15:44:31;-2.20;99.90